createdAt,value
2018-02-09T00:00:29.981Z,98.04
2018-02-09T00:01:35.499Z,97.75
2018-02-09T00:02:41.026Z,97.85
2018-02-09T00:03:46.548Z,97.85
2018-02-09T00:04:52.073Z,97.85
2018-02-09T00:05:57.601Z,97.85
2018-02-09T00:07:03.121Z,97.85
2018-02-09T00:08:08.649Z,97.47
2018-02-09T00:09:14.171Z,97.85
2018-02-09T00:10:19.702Z,97.85
2018-02-09T00:11:25.223Z,97.85
2018-02-09T00:12:30.742Z,97.94
2018-02-09T00:13:36.270Z,97.47
2018-02-09T00:14:41.794Z,97.09
2018-02-09T00:15:47.316Z,97.47
2018-02-09T00:16:52.838Z,97.47
2018-02-09T00:17:58.379Z,97.28
2018-02-09T00:19:03.892Z,97.47
2018-02-09T00:20:09.423Z,97.38
2018-02-09T00:21:14.937Z,97.47
2018-02-09T00:22:20.470Z,97.66
2018-02-09T00:23:25.985Z,97.66
2018-02-09T00:24:31.512Z,97.47
2018-02-09T00:25:37.039Z,97.47
2018-02-09T00:26:42.560Z,97.19
2018-02-09T00:27:48.092Z,97.28
2018-02-09T00:28:53.607Z,97.28
2018-02-09T00:29:59.137Z,97.47
2018-02-09T00:31:04.666Z,97.47
2018-02-09T00:32:10.186Z,97.66
2018-02-09T00:33:15.708Z,97.66
2018-02-09T00:34:21.233Z,97.09
2018-02-09T00:35:26.756Z,97.38
2018-02-09T00:36:32.281Z,97.19
2018-02-09T00:37:37.805Z,97.38
2018-02-09T00:38:43.329Z,97.28
2018-02-09T00:39:48.855Z,97.19
2018-02-09T00:40:54.376Z,97.28
2018-02-09T00:41:59.902Z,97.75
2018-02-09T00:43:05.423Z,97.28
2018-02-09T00:44:10.949Z,97.47
2018-02-09T00:45:16.475Z,97.28
2018-02-09T00:46:21.999Z,97.19
2018-02-09T00:47:27.525Z,97.19
2018-02-09T00:48:33.047Z,97.28
2018-02-09T00:49:38.575Z,97.75
2018-02-09T00:50:44.093Z,97.28
2018-02-09T00:51:49.626Z,97.09
2018-02-09T00:52:55.138Z,97.47
2018-02-09T00:54:00.669Z,97.47
2018-02-09T00:55:06.189Z,97.28
2018-02-09T00:56:11.722Z,97.28
2018-02-09T00:57:17.243Z,97.38
2018-02-09T00:58:22.764Z,97.75
2018-02-09T00:59:28.286Z,97.75
2018-02-09T01:00:33.816Z,97.75
2018-02-09T01:01:39.334Z,97.47
2018-02-09T01:02:44.863Z,97.19
2018-02-09T01:03:50.381Z,97.66
2018-02-09T01:04:55.911Z,97.28
2018-02-09T01:06:01.433Z,97.47
2018-02-09T01:07:06.963Z,97.28
2018-02-09T01:08:12.478Z,97.28
2018-02-09T01:09:18.006Z,97.28
2018-02-09T01:10:23.530Z,97.28
2018-02-09T01:11:29.054Z,97.28
2018-02-09T01:12:34.580Z,97.19
2018-02-09T01:13:40.098Z,97.28
2018-02-09T01:14:45.629Z,97.66
2018-02-09T01:15:51.148Z,97.09
2018-02-09T01:16:56.680Z,97.19
2018-02-09T01:18:02.195Z,97.47
2018-02-09T01:19:07.720Z,97.28
2018-02-09T01:20:13.252Z,97.09
2018-02-09T01:21:18.772Z,97.09
2018-02-09T01:22:24.294Z,97.09
2018-02-09T01:23:29.815Z,97.47
2018-02-09T01:24:35.344Z,97.28
2018-02-09T01:25:40.865Z,97.66
2018-02-09T01:26:46.391Z,97.38
2018-02-09T01:27:51.915Z,97.38
2018-02-09T01:28:57.435Z,97.66
2018-02-09T01:30:02.965Z,97.66
2018-02-09T01:31:08.483Z,97.94
2018-02-09T01:32:14.012Z,97.66
2018-02-09T01:33:19.540Z,97.38
2018-02-09T01:34:25.059Z,97.66
2018-02-09T01:35:30.582Z,98.04
2018-02-09T01:36:36.111Z,97.28
2018-02-09T01:37:41.627Z,97.09
2018-02-09T01:38:47.152Z,97.38
2018-02-09T01:39:52.674Z,97.47
2018-02-09T01:40:58.200Z,97.09
2018-02-09T01:42:03.731Z,97.19
2018-02-09T01:43:09.251Z,97.47
2018-02-09T01:44:14.771Z,97.56
2018-02-09T01:45:20.306Z,97.19
2018-02-09T01:46:25.822Z,97.09
2018-02-09T01:47:31.355Z,97.47
2018-02-09T01:48:36.865Z,97.47
2018-02-09T01:49:42.394Z,97.47
2018-02-09T01:50:47.922Z,97.28
2018-02-09T01:51:53.441Z,97.19
2018-02-09T01:52:58.964Z,97.19
2018-02-09T01:54:04.492Z,97.00
2018-02-09T01:55:10.010Z,97.38
2018-02-09T01:56:15.536Z,97.28
2018-02-09T01:57:21.061Z,97.56
2018-02-09T01:58:26.581Z,97.47
2018-02-09T01:59:32.102Z,97.09
2018-02-09T02:00:37.632Z,97.09
2018-02-09T02:01:43.151Z,97.56
2018-02-09T02:02:48.680Z,97.28
2018-02-09T02:03:54.201Z,97.66
2018-02-09T02:04:59.724Z,97.38
2018-02-09T02:06:05.250Z,97.38
2018-02-09T02:07:10.770Z,97.38
2018-02-09T02:08:16.306Z,97.47
2018-02-09T02:09:21.827Z,97.66
2018-02-09T02:10:27.346Z,97.94
2018-02-09T02:11:32.872Z,97.66
2018-02-09T02:12:38.390Z,97.85
2018-02-09T02:13:43.919Z,97.85
2018-02-09T02:14:49.442Z,97.85
2018-02-09T02:15:54.967Z,97.66
2018-02-09T02:17:00.488Z,97.85
2018-02-09T02:18:06.011Z,97.94
2018-02-09T02:19:11.534Z,97.66
2018-02-09T02:20:17.061Z,97.85
2018-02-09T02:21:22.583Z,97.66
2018-02-09T02:22:28.111Z,97.47
2018-02-09T02:23:33.629Z,97.47
2018-02-09T02:24:39.159Z,97.94
2018-02-09T02:25:44.680Z,98.13
2018-02-09T02:26:50.206Z,98.04
2018-02-09T02:27:55.724Z,98.13
2018-02-09T02:29:01.254Z,97.94
2018-02-09T02:30:06.789Z,98.13
2018-02-09T02:31:12.297Z,98.13
2018-02-09T02:32:17.831Z,98.13
2018-02-09T02:33:23.350Z,97.56
2018-02-09T02:34:28.870Z,97.47
2018-02-09T02:35:34.391Z,97.66
2018-02-09T02:36:39.922Z,97.47
2018-02-09T02:37:45.441Z,97.75
2018-02-09T02:38:50.967Z,97.94
2018-02-09T02:39:56.493Z,97.28
2018-02-09T02:41:02.013Z,97.47
2018-02-09T02:42:07.541Z,97.47
2018-02-09T02:43:13.067Z,97.38
2018-02-09T02:44:18.590Z,97.28
2018-02-09T02:45:24.111Z,97.47
2018-02-09T02:46:29.634Z,97.56
2018-02-09T02:47:35.155Z,97.47
2018-02-09T02:48:40.679Z,97.19
2018-02-09T02:49:46.229Z,97.09
2018-02-09T02:50:51.727Z,97.75
2018-02-09T02:51:57.252Z,97.28
2018-02-09T02:53:02.780Z,97.47
2018-02-09T02:54:08.295Z,97.09
2018-02-09T02:55:13.824Z,97.38
2018-02-09T02:56:19.349Z,97.47
2018-02-09T02:57:24.873Z,97.47
2018-02-09T02:58:30.391Z,97.47
2018-02-09T02:59:35.924Z,97.47
2018-02-09T03:00:41.444Z,97.47
2018-02-09T03:01:46.962Z,97.47
2018-02-09T03:02:52.490Z,97.19
2018-02-09T03:03:58.011Z,97.47
2018-02-09T03:05:03.539Z,97.19
2018-02-09T03:06:09.058Z,97.47
2018-02-09T03:07:14.584Z,97.56
2018-02-09T03:08:20.112Z,97.56
2018-02-09T03:09:25.634Z,98.04
2018-02-09T03:10:31.160Z,98.04
2018-02-09T03:11:36.687Z,97.75
2018-02-09T03:12:42.209Z,97.56
2018-02-09T03:13:47.773Z,97.75
2018-02-09T03:14:53.250Z,97.38
2018-02-09T03:15:58.774Z,97.94
2018-02-09T03:17:04.297Z,98.23
2018-02-09T03:18:09.831Z,98.13
2018-02-09T03:19:15.342Z,98.23
2018-02-09T03:20:20.872Z,97.94
2018-02-09T03:21:26.391Z,97.85
2018-02-09T03:22:31.922Z,98.23
2018-02-09T03:23:37.441Z,98.23
2018-02-09T03:24:42.962Z,98.23
2018-02-09T03:25:48.488Z,98.04
2018-02-09T03:26:54.016Z,98.23
2018-02-09T03:27:59.532Z,97.66
2018-02-09T03:29:05.064Z,97.85
2018-02-09T03:30:10.587Z,98.23
2018-02-09T03:31:16.104Z,98.04
2018-02-09T03:32:21.627Z,98.32
2018-02-09T03:33:27.151Z,98.04
2018-02-09T03:34:32.678Z,98.13
2018-02-09T03:35:38.200Z,98.04
2018-02-09T03:36:43.723Z,97.66
2018-02-09T03:37:49.253Z,97.66
2018-02-09T03:38:54.776Z,97.56
2018-02-09T03:40:00.294Z,97.47
2018-02-09T03:41:05.825Z,97.38
2018-02-09T03:42:11.343Z,97.38
2018-02-09T03:43:16.868Z,97.85
2018-02-09T03:44:22.393Z,98.04
2018-02-09T03:45:27.914Z,97.66
2018-02-09T03:46:33.443Z,97.66
2018-02-09T03:47:38.963Z,97.66
2018-02-09T03:48:44.485Z,97.75
2018-02-09T03:49:50.013Z,97.94
2018-02-09T03:50:55.539Z,98.23
2018-02-09T03:52:01.064Z,98.23
2018-02-09T03:53:06.584Z,98.23
2018-02-09T03:54:12.104Z,97.94
2018-02-09T03:55:17.630Z,97.94
2018-02-09T03:56:23.150Z,97.94
2018-02-09T03:57:28.675Z,98.04
2018-02-09T03:58:34.199Z,97.85
2018-02-09T03:59:39.723Z,97.85
2018-02-09T04:00:45.246Z,97.85
2018-02-09T04:01:50.771Z,97.75
2018-02-09T04:02:56.297Z,97.66
2018-02-09T04:04:01.824Z,97.85
2018-02-09T04:05:07.341Z,97.66
2018-02-09T04:06:12.863Z,97.66
2018-02-09T04:07:18.480Z,97.66
2018-02-09T04:08:23.915Z,98.13
2018-02-09T04:09:29.439Z,97.66
2018-02-09T04:10:34.965Z,97.66
2018-02-09T04:11:40.483Z,97.85
2018-02-09T04:12:46.007Z,97.85
2018-02-09T04:13:51.529Z,98.89
2018-02-09T04:14:57.056Z,98.41
2018-02-09T04:16:02.579Z,98.41
2018-02-09T04:17:08.100Z,98.41
2018-02-09T04:18:13.630Z,98.70
2018-02-09T04:19:19.148Z,98.70
2018-02-09T04:20:24.676Z,98.70
2018-02-09T04:21:30.203Z,98.70
2018-02-09T04:22:35.721Z,98.70
2018-02-09T04:23:41.251Z,98.70
2018-02-09T04:24:46.771Z,98.70
2018-02-09T04:25:52.293Z,98.70
2018-02-09T04:26:57.814Z,98.70
2018-02-09T04:28:03.339Z,98.60
2018-02-09T04:29:08.864Z,98.79
2018-02-09T04:30:14.389Z,98.70
2018-02-09T04:31:19.921Z,98.70
2018-02-09T04:32:25.435Z,98.70
2018-02-09T04:33:30.964Z,98.60
2018-02-09T04:34:36.492Z,98.51
2018-02-09T04:35:42.009Z,98.79
2018-02-09T04:36:47.538Z,98.70
2018-02-09T04:37:53.054Z,98.32
2018-02-09T04:38:58.584Z,98.32
2018-02-09T04:40:04.105Z,98.23
2018-02-09T04:41:09.623Z,98.04
2018-02-09T04:42:15.153Z,97.85
2018-02-09T04:43:20.674Z,97.66
2018-02-09T04:44:26.194Z,98.04
2018-02-09T04:45:31.725Z,98.04
2018-02-09T04:46:37.244Z,98.04
2018-02-09T04:47:42.767Z,98.13
2018-02-09T04:48:48.291Z,98.04
2018-02-09T04:49:53.820Z,97.66
2018-02-09T04:50:59.344Z,97.38
2018-02-09T04:52:04.862Z,97.66
2018-02-09T04:53:10.394Z,97.75
2018-02-09T04:54:15.915Z,98.04
2018-02-09T04:55:21.433Z,97.94
2018-02-09T04:56:26.962Z,97.56
2018-02-09T04:57:32.482Z,97.66
2018-02-09T04:58:38.010Z,97.85
2018-02-09T04:59:43.537Z,97.85
2018-02-09T05:00:49.063Z,98.04
2018-02-09T05:01:54.575Z,97.85
2018-02-09T05:03:00.107Z,97.85
2018-02-09T05:04:05.627Z,97.85
2018-02-09T05:05:11.153Z,97.85
2018-02-09T05:06:16.672Z,97.56
2018-02-09T05:07:22.242Z,97.94
2018-02-09T05:08:27.720Z,97.85
2018-02-09T05:09:33.261Z,97.85
2018-02-09T05:10:38.768Z,97.85
2018-02-09T05:11:44.292Z,97.75
2018-02-09T05:12:49.816Z,97.85
2018-02-09T05:13:55.343Z,98.13
2018-02-09T05:15:00.863Z,97.66
2018-02-09T05:16:06.391Z,97.56
2018-02-09T05:17:11.951Z,97.28
2018-02-09T05:18:17.437Z,97.28
2018-02-09T05:19:22.958Z,97.28
2018-02-09T05:20:28.486Z,97.09
2018-02-09T05:21:34.007Z,97.09
2018-02-09T05:22:39.532Z,97.09
2018-02-09T05:23:45.053Z,97.09
2018-02-09T05:24:50.585Z,97.09
2018-02-09T05:25:56.104Z,97.09
2018-02-09T05:27:01.628Z,97.09
2018-02-09T05:28:07.152Z,97.09
2018-02-09T05:29:12.672Z,97.28
2018-02-09T05:30:18.197Z,97.28
2018-02-09T05:31:23.729Z,97.47
2018-02-09T05:32:29.242Z,97.47
2018-02-09T05:33:34.771Z,97.75
2018-02-09T05:34:40.299Z,97.28
2018-02-09T05:35:45.823Z,98.04
2018-02-09T05:36:51.376Z,98.04
2018-02-09T05:37:56.867Z,97.66
2018-02-09T05:39:02.393Z,97.66
2018-02-09T05:40:07.913Z,97.38
2018-02-09T05:41:13.435Z,97.28
2018-02-09T05:42:18.959Z,97.66
2018-02-09T05:43:24.485Z,97.19
2018-02-09T05:44:30.008Z,97.66
2018-02-09T05:45:35.534Z,97.94
2018-02-09T05:46:41.063Z,97.28
2018-02-09T05:47:46.577Z,97.09
2018-02-09T05:48:52.107Z,97.28
2018-02-09T05:49:57.628Z,97.66
2018-02-09T05:51:03.152Z,97.75
2018-02-09T05:52:08.672Z,97.28
2018-02-09T05:53:14.198Z,97.66
2018-02-09T05:54:19.722Z,97.38
2018-02-09T05:55:25.244Z,97.47
2018-02-09T05:56:30.768Z,97.09
2018-02-09T05:57:36.302Z,97.28
2018-02-09T05:58:41.940Z,97.38
2018-02-09T05:59:47.343Z,97.56
2018-02-09T06:00:52.985Z,97.94
2018-02-09T06:01:58.390Z,97.75
2018-02-09T06:03:03.914Z,97.85
2018-02-09T06:04:09.450Z,97.94
2018-02-09T06:05:14.965Z,97.66
2018-02-09T06:06:20.490Z,97.66
2018-02-09T06:07:26.134Z,97.75
2018-02-09T06:08:31.530Z,97.47
2018-02-09T06:09:37.054Z,97.38
2018-02-09T06:10:42.665Z,97.38
2018-02-09T06:11:48.105Z,97.94
2018-02-09T06:12:53.625Z,98.04
2018-02-09T06:13:59.163Z,97.94
2018-02-09T06:15:04.678Z,98.23
2018-02-09T06:16:10.199Z,98.13
2018-02-09T06:17:15.722Z,98.23
2018-02-09T06:18:21.246Z,97.85
2018-02-09T06:19:26.767Z,98.23
2018-02-09T06:20:32.292Z,98.13
2018-02-09T06:21:37.815Z,98.13
2018-02-09T06:22:43.341Z,98.13
2018-02-09T06:23:48.869Z,98.13
2018-02-09T06:24:54.394Z,97.47
2018-02-09T06:25:59.911Z,97.85
2018-02-09T06:27:05.435Z,97.66
2018-02-09T06:28:10.956Z,97.47
2018-02-09T06:29:16.488Z,97.75
2018-02-09T06:30:22.006Z,97.56
2018-02-09T06:31:27.531Z,97.85
2018-02-09T06:32:33.052Z,98.04
2018-02-09T06:33:38.575Z,97.85
2018-02-09T06:34:44.100Z,97.66
2018-02-09T06:35:49.622Z,98.04
2018-02-09T06:36:55.151Z,97.85
2018-02-09T06:38:00.671Z,97.75
2018-02-09T06:39:06.196Z,97.94
2018-02-09T06:40:11.716Z,97.75
2018-02-09T06:41:17.248Z,97.85
2018-02-09T06:42:22.767Z,97.85
2018-02-09T06:43:28.291Z,97.75
2018-02-09T06:44:33.820Z,98.04
2018-02-09T06:45:39.335Z,97.94
2018-02-09T06:46:44.863Z,97.75
2018-02-09T06:47:50.387Z,97.85
2018-02-09T06:48:55.912Z,97.47
2018-02-09T06:50:01.432Z,97.47
2018-02-09T06:51:06.961Z,97.38
2018-02-09T06:52:12.481Z,97.28
2018-02-09T06:53:18.003Z,97.75
2018-02-09T06:54:23.529Z,97.56
2018-02-09T06:55:29.057Z,97.66
2018-02-09T06:56:34.575Z,97.47
2018-02-09T06:57:40.096Z,98.04
2018-02-09T06:58:45.625Z,97.85
2018-02-09T06:59:51.149Z,97.66
2018-02-09T07:00:56.675Z,97.66
2018-02-09T07:02:02.193Z,97.66
2018-02-09T07:03:07.735Z,97.38
2018-02-09T07:04:13.241Z,97.47
2018-02-09T07:05:18.768Z,97.66
2018-02-09T07:06:24.299Z,98.04
2018-02-09T07:07:29.820Z,98.04
2018-02-09T07:08:35.345Z,98.23
2018-02-09T07:09:40.866Z,98.04
2018-02-09T07:10:46.386Z,98.04
2018-02-09T07:11:51.906Z,98.04
2018-02-09T07:12:57.440Z,98.04
2018-02-09T07:14:02.958Z,97.75
2018-02-09T07:15:08.479Z,98.04
2018-02-09T07:16:14.010Z,98.04
2018-02-09T07:17:19.532Z,98.04
2018-02-09T07:18:25.052Z,98.04
2018-02-09T07:19:30.574Z,98.13
2018-02-09T07:20:36.114Z,98.04
2018-02-09T07:21:41.628Z,97.94
2018-02-09T07:22:47.156Z,97.85
2018-02-09T07:23:52.669Z,97.66
2018-02-09T07:24:58.265Z,98.32
2018-02-09T07:26:03.717Z,97.85
2018-02-09T07:27:09.244Z,98.23
2018-02-09T07:28:14.765Z,97.85
2018-02-09T07:29:20.293Z,97.75
2018-02-09T07:30:25.819Z,97.94
2018-02-09T07:31:31.343Z,98.23
2018-02-09T07:32:36.862Z,97.75
2018-02-09T07:33:42.385Z,97.66
2018-02-09T07:34:47.909Z,98.13
2018-02-09T07:35:53.439Z,97.85
2018-02-09T07:36:58.958Z,98.04
2018-02-09T07:38:04.482Z,97.85
2018-02-09T07:39:10.007Z,98.04
2018-02-09T07:40:15.541Z,97.75
2018-02-09T07:41:21.056Z,98.41
2018-02-09T07:42:26.583Z,98.04
2018-02-09T07:43:32.136Z,98.04
2018-02-09T07:44:37.641Z,98.04
2018-02-09T07:45:43.152Z,98.23
2018-02-09T07:46:48.680Z,97.75
2018-02-09T07:47:54.200Z,98.13
2018-02-09T07:48:59.730Z,98.13
2018-02-09T07:50:05.251Z,97.75
2018-02-09T07:51:10.779Z,97.66
2018-02-09T07:52:16.299Z,97.66
2018-02-09T07:53:21.823Z,97.47
2018-02-09T07:54:27.346Z,97.56
2018-02-09T07:55:32.871Z,97.66
2018-02-09T07:56:38.396Z,98.04
2018-02-09T07:57:43.916Z,97.66
2018-02-09T07:58:49.441Z,98.04
2018-02-09T07:59:54.971Z,97.71
2018-02-09T08:01:00.492Z,98.09
2018-02-09T08:02:06.015Z,97.99
2018-02-09T08:03:11.541Z,98.18
2018-02-09T08:04:17.100Z,98.09
2018-02-09T08:05:22.592Z,98.18
2018-02-09T08:06:28.121Z,98.09
2018-02-09T08:07:33.641Z,97.71
2018-02-09T08:08:39.162Z,98.09
2018-02-09T08:09:44.686Z,97.99
2018-02-09T08:10:50.212Z,97.61
2018-02-09T08:11:55.768Z,97.43
2018-02-09T08:13:01.268Z,97.52
2018-02-09T08:14:06.785Z,97.43
2018-02-09T08:15:12.314Z,97.80
2018-02-09T08:16:17.834Z,97.43
2018-02-09T08:17:23.364Z,97.71
2018-02-09T08:18:28.886Z,97.61
2018-02-09T08:19:34.411Z,97.80
2018-02-09T08:20:39.939Z,97.90
2018-02-09T08:21:45.463Z,97.61
2018-02-09T08:22:50.986Z,97.33
2018-02-09T08:23:56.510Z,97.14
2018-02-09T08:25:02.044Z,97.52
2018-02-09T08:26:07.561Z,97.71
2018-02-09T08:27:13.081Z,97.99
2018-02-09T08:28:18.612Z,97.99
2018-02-09T08:29:24.137Z,97.99
2018-02-09T08:30:29.661Z,97.24
2018-02-09T08:31:35.181Z,97.33
2018-02-09T08:32:40.708Z,97.43
2018-02-09T08:33:46.232Z,97.05
2018-02-09T08:34:51.759Z,96.77
2018-02-09T08:35:57.278Z,96.67
2018-02-09T08:37:02.813Z,96.95
2018-02-09T08:38:08.330Z,96.77
2018-02-09T08:39:13.859Z,96.67
2018-02-09T08:40:19.378Z,96.95
2018-02-09T08:41:24.917Z,97.14
2018-02-09T08:42:30.436Z,96.44
2018-02-09T08:43:36.016Z,96.53
2018-02-09T08:44:41.486Z,96.63
2018-02-09T08:45:47.011Z,96.15
2018-02-09T08:46:52.537Z,96.44
2018-02-09T08:47:58.061Z,96.44
2018-02-09T08:49:03.581Z,96.44
2018-02-09T08:50:09.113Z,96.15
2018-02-09T08:51:14.636Z,95.87
2018-02-09T08:52:20.160Z,96.06
2018-02-09T08:53:25.686Z,96.15
2018-02-09T08:54:31.206Z,96.34
2018-02-09T08:55:36.738Z,96.15
2018-02-09T08:56:42.266Z,95.68
2018-02-09T08:57:47.785Z,95.87
2018-02-09T08:58:53.312Z,96.15
2018-02-09T08:59:58.842Z,95.68
2018-02-09T09:01:04.360Z,95.87
2018-02-09T09:02:09.893Z,95.50
2018-02-09T09:03:15.416Z,95.59
2018-02-09T09:04:20.943Z,95.40
2018-02-09T09:05:26.469Z,95.31
2018-02-09T09:06:31.993Z,95.31
2018-02-09T09:07:37.519Z,94.93
2018-02-09T09:08:43.050Z,95.03
2018-02-09T09:09:48.568Z,95.31
2018-02-09T09:10:54.096Z,94.93
2018-02-09T09:11:59.622Z,94.93
2018-02-09T09:13:05.152Z,94.27
2018-02-09T09:14:10.671Z,94.55
2018-02-09T09:15:16.208Z,94.65
2018-02-09T09:16:21.729Z,94.51
2018-02-09T09:17:27.252Z,94.41
2018-02-09T09:18:32.782Z,94.51
2018-02-09T09:19:38.311Z,94.51
2018-02-09T09:20:43.834Z,94.13
2018-02-09T09:21:49.353Z,94.32
2018-02-09T09:22:54.883Z,93.94
2018-02-09T09:24:00.409Z,93.84
2018-02-09T09:25:05.939Z,94.03
2018-02-09T09:26:11.458Z,93.56
2018-02-09T09:27:16.991Z,93.28
2018-02-09T09:28:22.512Z,93.56
2018-02-09T09:29:28.036Z,92.80
2018-02-09T09:30:33.566Z,93.18
2018-02-09T09:31:39.092Z,93.37
2018-02-09T09:32:44.619Z,92.71
2018-02-09T09:33:50.144Z,92.52
2018-02-09T09:34:55.673Z,92.99
2018-02-09T09:36:01.198Z,92.61
2018-02-09T09:37:06.725Z,92.43
2018-02-09T09:38:12.252Z,92.14
2018-02-09T09:39:17.782Z,91.86
2018-02-09T09:40:23.300Z,91.86
2018-02-09T09:41:28.832Z,91.96
2018-02-09T09:42:34.360Z,91.58
2018-02-09T09:43:39.884Z,91.11
2018-02-09T09:44:45.424Z,91.67
2018-02-09T09:45:50.937Z,92.05
2018-02-09T09:46:56.464Z,90.92
2018-02-09T09:48:01.991Z,90.92
2018-02-09T09:49:07.518Z,92.05
2018-02-09T09:50:13.044Z,92.05
2018-02-09T09:51:18.568Z,91.49
2018-02-09T09:52:24.101Z,91.53
2018-02-09T09:53:29.631Z,91.49
2018-02-09T09:54:35.152Z,91.72
2018-02-09T09:55:40.689Z,91.15
2018-02-09T09:56:46.209Z,91.15
2018-02-09T09:57:51.732Z,90.77
2018-02-09T09:58:57.260Z,89.92
2018-02-09T10:00:02.790Z,89.92
2018-02-09T10:01:08.320Z,90.11
2018-02-09T10:02:13.842Z,89.92
2018-02-09T10:03:19.371Z,89.92
2018-02-09T10:04:24.900Z,89.73
2018-02-09T10:05:30.426Z,89.92
2018-02-09T10:06:35.947Z,89.83
2018-02-09T10:07:41.485Z,89.73
2018-02-09T10:08:47.013Z,89.83
2018-02-09T10:09:52.532Z,89.83
2018-02-09T10:10:58.059Z,90.02
2018-02-09T10:13:35.351Z,89.54
2018-02-09T10:14:40.789Z,89.45
2018-02-09T10:16:39.352Z,89.36
2018-02-09T10:17:44.949Z,89.64
2018-02-09T10:19:43.281Z,89.83
2018-02-09T10:20:48.790Z,89.54
2018-02-09T10:22:47.298Z,89.54
2018-02-09T10:23:52.822Z,89.64
2018-02-09T10:24:58.356Z,88.51
2018-02-09T10:26:03.872Z,88.79
2018-02-09T10:27:09.397Z,88.89
2018-02-09T10:28:14.922Z,88.51
2018-02-09T10:29:20.454Z,88.42
2018-02-09T10:30:25.984Z,88.93
2018-02-09T10:31:31.518Z,89.03
2018-02-09T10:32:37.033Z,88.27
2018-02-09T10:33:42.564Z,89.03
2018-02-09T10:34:48.083Z,89.12
2018-02-09T10:35:53.617Z,88.55
2018-02-09T10:36:59.141Z,88.46
2018-02-09T10:38:04.670Z,88.17
2018-02-09T10:39:10.203Z,87.79
2018-02-09T10:40:15.722Z,87.79
2018-02-09T10:41:21.249Z,87.61
2018-02-09T10:42:26.777Z,87.70
2018-02-09T10:43:32.303Z,87.51
2018-02-09T10:44:37.834Z,87.42
2018-02-09T10:45:43.428Z,87.51
2018-02-09T10:46:48.890Z,87.32
2018-02-09T10:47:54.416Z,87.23
2018-02-09T10:48:59.938Z,87.32
2018-02-09T10:50:05.462Z,87.23
2018-02-09T10:51:10.992Z,86.85
2018-02-09T10:52:16.523Z,86.47
2018-02-09T10:53:22.051Z,86.66
2018-02-09T10:54:27.575Z,85.81
2018-02-09T10:55:33.100Z,86.10
2018-02-09T10:56:38.632Z,86.10
2018-02-09T10:57:44.156Z,85.72
2018-02-09T10:58:49.689Z,85.43
2018-02-09T10:59:55.216Z,84.96
2018-02-09T11:01:00.742Z,84.86
2018-02-09T11:02:06.273Z,84.49
2018-02-09T11:03:11.808Z,84.77
2018-02-09T11:04:17.329Z,84.81
2018-02-09T11:05:22.853Z,84.58
2018-02-09T11:06:28.390Z,84.44
2018-02-09T11:07:33.915Z,84.63
2018-02-09T11:08:39.453Z,84.53
2018-02-09T11:09:44.973Z,84.53
2018-02-09T11:10:50.502Z,84.72
2018-02-09T11:11:56.032Z,85.10
2018-02-09T11:13:01.558Z,84.06
2018-02-09T11:14:07.094Z,84.16
2018-02-09T11:15:12.618Z,85.19
2018-02-09T11:16:18.142Z,85.00
2018-02-09T11:17:23.673Z,84.06
2018-02-09T11:18:29.201Z,84.06
2018-02-09T11:19:34.727Z,84.63
2018-02-09T11:20:40.286Z,84.72
2018-02-09T11:21:45.791Z,84.06
2018-02-09T11:22:51.322Z,83.30
2018-02-09T11:23:56.850Z,82.54
2018-02-09T11:25:02.401Z,82.73
2018-02-09T11:26:07.905Z,82.64
2018-02-09T11:27:13.437Z,82.54
2018-02-09T11:28:18.961Z,81.98
2018-02-09T11:29:24.490Z,81.98
2018-02-09T11:30:30.026Z,81.41
2018-02-09T11:31:35.553Z,81.51
2018-02-09T11:34:12.920Z,81.79
2018-02-09T11:35:18.342Z,82.07
2018-02-09T11:36:23.869Z,82.26
2018-02-09T11:37:29.393Z,81.60
2018-02-09T11:38:34.915Z,81.70
2018-02-09T11:39:40.454Z,82.17
2018-02-09T11:40:46.026Z,82.31
2018-02-09T11:41:51.506Z,81.70
2018-02-09T11:42:57.036Z,81.07
2018-02-09T11:44:02.554Z,81.07
2018-02-09T11:45:08.142Z,81.26
2018-02-09T11:46:13.612Z,81.17
2018-02-09T11:47:19.149Z,80.69
2018-02-09T11:48:24.723Z,81.17
2018-02-09T11:49:30.243Z,80.32
2018-02-09T11:50:35.729Z,79.75
2018-02-09T11:51:41.276Z,80.04
2018-02-09T11:52:46.788Z,80.22
2018-02-09T11:53:52.310Z,80.04
2018-02-09T11:54:57.894Z,79.47
2018-02-09T11:56:03.362Z,79.75
2018-02-09T11:57:08.952Z,79.75
2018-02-09T11:58:14.423Z,79.09
2018-02-09T11:59:19.948Z,78.42
2018-02-09T12:00:25.489Z,78.42
2018-02-09T12:01:31.014Z,78.71
2018-02-09T12:02:36.539Z,78.99
2018-02-09T12:03:42.063Z,79.28
2018-02-09T12:04:47.597Z,79.09
2018-02-09T12:05:53.123Z,79.37
2018-02-09T12:06:58.655Z,79.75
2018-02-09T12:08:04.185Z,79.94
2018-02-09T12:09:09.706Z,79.56
2018-02-09T12:10:15.233Z,79.66
2018-02-09T12:11:20.771Z,79.37
2018-02-09T12:12:26.396Z,79.09
2018-02-09T12:13:31.834Z,78.52
2018-02-09T12:14:37.357Z,78.05
2018-02-09T12:15:42.883Z,78.05
2018-02-09T12:16:48.412Z,78.80
2018-02-09T12:17:53.947Z,77.67
2018-02-09T12:18:59.473Z,77.20
2018-02-09T12:20:05.004Z,77.67
2018-02-09T12:21:10.534Z,77.95
2018-02-09T12:22:16.063Z,78.23
2018-02-09T12:23:21.593Z,78.61
2018-02-09T12:24:27.123Z,78.05
2018-02-09T12:25:32.652Z,77.67
2018-02-09T12:26:38.184Z,77.20
2018-02-09T12:27:43.716Z,77.86
2018-02-09T12:28:49.244Z,77.67
2018-02-09T12:29:54.770Z,77.86
2018-02-09T12:31:00.304Z,78.33
2018-02-09T12:32:05.834Z,78.23
2018-02-09T12:33:11.363Z,78.71
2018-02-09T12:34:16.889Z,77.95
2018-02-09T12:35:22.423Z,78.71
2018-02-09T12:36:27.945Z,77.86
2018-02-09T12:37:33.480Z,78.33
2018-02-09T12:38:39.008Z,77.39
2018-02-09T12:39:44.537Z,77.29
2018-02-09T12:40:50.072Z,77.58
2018-02-09T12:41:55.607Z,77.48
2018-02-09T12:43:01.143Z,78.23
2018-02-09T12:44:06.660Z,77.58
2018-02-09T12:45:12.186Z,77.39
2018-02-09T12:46:17.723Z,77.58
2018-02-09T12:47:23.249Z,77.61
2018-02-09T12:48:28.783Z,76.91
2018-02-09T12:49:34.312Z,77.29
2018-02-09T12:50:39.839Z,76.53
2018-02-09T12:51:45.378Z,76.63
2018-02-09T12:52:50.894Z,77.39
2018-02-09T12:53:56.424Z,76.91
2018-02-09T12:55:01.958Z,77.20
2018-02-09T12:56:07.484Z,77.58
2018-02-09T12:57:13.024Z,77.76
2018-02-09T12:58:18.544Z,77.58
2018-02-09T12:59:24.081Z,76.91
2018-02-09T13:00:29.608Z,77.01
2018-02-09T13:01:35.134Z,77.01
2018-02-09T13:02:40.669Z,77.58
2018-02-09T13:03:46.200Z,77.01
2018-02-09T13:04:51.729Z,77.58
2018-02-09T13:05:57.255Z,77.20
2018-02-09T13:07:02.794Z,76.82
2018-02-09T13:08:08.319Z,76.72
2018-02-09T13:09:13.844Z,76.91
2018-02-09T13:10:19.377Z,77.39
2018-02-09T13:11:24.904Z,77.58
2018-02-09T13:12:30.443Z,77.48
2018-02-09T13:13:36.022Z,77.39
2018-02-09T13:14:41.497Z,76.63
2018-02-09T13:15:47.034Z,77.20
2018-02-09T13:16:52.560Z,78.42
2018-02-09T13:17:58.086Z,77.39
2018-02-09T13:19:03.619Z,77.39
2018-02-09T13:20:09.153Z,77.20
2018-02-09T13:21:14.684Z,77.20
2018-02-09T13:22:20.252Z,77.58
2018-02-09T13:23:25.744Z,77.76
2018-02-09T13:24:31.270Z,77.10
2018-02-09T13:25:36.808Z,77.39
2018-02-09T13:26:42.336Z,78.05
2018-02-09T13:27:47.861Z,77.67
2018-02-09T13:28:53.405Z,77.58
2018-02-09T13:29:58.921Z,77.67
2018-02-09T13:31:04.447Z,77.67
2018-02-09T13:32:09.986Z,77.10
2018-02-09T13:33:15.511Z,77.29
2018-02-09T13:34:21.039Z,77.39
2018-02-09T13:35:26.631Z,77.58
2018-02-09T13:36:32.094Z,77.39
2018-02-09T13:37:37.633Z,78.05
2018-02-09T13:38:43.158Z,77.29
2018-02-09T13:39:48.690Z,77.29
2018-02-09T13:40:54.225Z,77.58
2018-02-09T13:41:59.758Z,77.67
2018-02-09T13:43:05.281Z,77.86
2018-02-09T13:44:10.807Z,77.86
2018-02-09T13:45:16.344Z,78.14
2018-02-09T13:46:21.864Z,77.39
2018-02-09T13:47:27.398Z,77.01
2018-02-09T13:48:32.930Z,77.39
2018-02-09T13:49:38.459Z,77.48
2018-02-09T13:50:43.992Z,77.76
2018-02-09T13:51:49.569Z,77.95
2018-02-09T13:52:55.056Z,77.76
2018-02-09T13:54:00.578Z,78.05
2018-02-09T13:55:06.106Z,77.86
2018-02-09T13:56:11.648Z,77.76
2018-02-09T13:57:17.172Z,77.67
2018-02-09T13:58:22.701Z,78.23
2018-02-09T13:59:28.228Z,78.71
2018-02-09T14:00:33.756Z,78.52
2018-02-09T14:01:39.289Z,78.23
2018-02-09T14:02:44.836Z,78.23
2018-02-09T14:03:50.344Z,78.23
2018-02-09T14:04:55.885Z,77.86
2018-02-09T14:06:01.411Z,77.76
2018-02-09T14:07:06.942Z,78.14
2018-02-09T14:08:12.466Z,78.33
2018-02-09T14:09:18.001Z,77.95